Terminal Aerodrome Forecast
Issued by NWS

Home | Current Version | Previous Version | Text Only | Print | Product List | Glossary On
Versions: 1 2 3 4 5 6 7 8 9 10 11 12 13 14 15 16 17
000
FTUS44 KLZK 282335
TAFHRO
TAF
KHRO 282335Z 2900/2924 VRB03KT P6SM SKC
     FM291200 11007KT P6SM BKN035 OVC100
     FM291400 11009KT P6SM -RA OVC040
     FM291700 11010G20KT 5SM -RA BKN015
      TEMPO 2918/2922 4SM BR OVC007=

USA.gov is the U.S. government's official web portal to all federal, state and local government web resources and services.